Time;durP1;ratioP1;P1;durP2;ratioP2;P2;SDS_P1;SDS_P2;PMS_P1;PMS_P2;Temp;Humidity;BMP_temperature;BMP_pressure;BME280_temperature;BME280_humidity;BME280_pressure;Samples;Min_cycle;Max_cycle;Signal;HPM_P1;HPM_P2
2023/09/16 00:00:08;;;;;;;;;;;14.80;99.90;;;;;;5094534;28;20040;-64
2023/09/16 00:02:37;;;;;;;2.47;0.52;;;14.70;99.90;;;;;;5094057;28;19923;-63
2023/09/16 00:05:04;;;;;;;0.50;0.50;;;14.50;99.90;;;;;;5093930;28;20036;-63
2023/09/16 00:07:31;;;;;;;0.80;0.80;;;14.80;99.90;;;;;;5093884;28;20092;-63
2023/09/16 00:09:57;;;;;;;1.08;0.98;;;14.20;99.90;;;;;;5093235;28;20105;-63
2023/09/16 00:12:27;;;;;;;0.77;0.70;;;13.90;99.90;;;;;;5093922;28;20141;-63
2023/09/16 00:14:55;;;;;;;0.30;0.30;;;14.20;99.90;;;;;;5093861;28;20089;-63
2023/09/16 00:17:21;;;;;;;0.52;0.52;;;14.40;99.90;;;;;;5093794;28;20126;-63
2023/09/16 00:19:47;;;;;;;0.40;0.40;;;14.30;99.90;;;;;;5093736;28;20051;-64
2023/09/16 00:22:13;;;;;;;;;;;14.50;99.90;;;;;;5093831;28;20501;-63
2023/09/16 00:24:43;;;;;;;1.92;1.48;;;14.40;99.90;;;;;;5093598;28;20003;-63
2023/09/16 00:27:09;;;;;;;1.45;1.35;;;14.10;99.90;;;;;;5093764;28;20071;-63
2023/09/16 00:29:35;;;;;;;;;;;14.20;99.90;;;;;;5093932;28;20484;-63
2023/09/16 00:32:07;;;;;;;1.73;0.88;;;14.10;99.90;;;;;;5093207;28;19974;-64
2023/09/16 00:34:32;;;;;;;1.38;0.98;;;14.00;99.90;;;;;;5093610;28;20044;-64
2023/09/16 00:36:58;;;;;;;;;;;14.30;99.90;;;;;;5093853;28;20439;-63
2023/09/16 00:39:25;;;;;;;0.82;0.82;;;14.00;99.90;;;;;;5093415;28;19977;-63
2023/09/16 00:41:51;;;;;;;1.50;0.60;;;14.30;99.90;;;;;;5093334;28;20467;-64
2023/09/16 00:44:16;;;;;;;;;;;14.20;99.90;;;;;;5093628;28;20079;-64
2023/09/16 00:46:42;;;;;;;0.75;0.75;;;14.10;99.90;;;;;;5093530;28;19924;-64
2023/09/16 00:49:08;;;;;;;;;;;14.10;99.90;;;;;;5058905;28;20400;-64
2023/09/16 00:51:34;;;;;;;1.00;0.95;;;14.40;99.90;;;;;;5093111;28;19927;-63
2023/09/16 00:54:01;;;;;;;0.95;0.50;;;16.00;99.90;;;;;;5093097;28;20048;-63
2023/09/16 00:56:29;;;;;;;1.67;1.05;;;13.90;99.90;;;;;;5093090;28;20155;-64
2023/09/16 00:58:59;;;;;;;0.60;0.60;;;13.90;99.90;;;;;;5092986;28;20160;-64
2023/09/16 01:01:25;;;;;;;0.47;0.47;;;14.30;99.90;;;;;;5092946;28;20089;-64
2023/09/16 01:03:52;;;;;;;0.70;0.70;;;14.60;99.90;;;;;;5092886;28;20101;-64
2023/09/16 01:06:18;;;;;;;0.50;0.50;;;14.00;99.90;;;;;;5092841;28;20058;-64
2023/09/16 01:08:44;;;;;;;0.75;0.75;;;14.10;99.90;;;;;;5092778;28;20048;-64
2023/09/16 01:11:11;;;;;;;3.00;1.25;;;13.90;99.90;;;;;;5092742;28;20051;-64
2023/09/16 01:13:38;;;;;;;2.15;1.55;;;14.00;99.90;;;;;;5092757;28;20043;-63
2023/09/16 01:16:22;;;;;;;2.63;1.33;;;13.80;99.90;;;;;;5092675;28;20480;-63
2023/09/16 01:18:54;;;;;;;1.38;1.00;;;14.10;99.90;;;;;;5092826;28;20503;-64
2023/09/16 01:21:22;;;;;;;0.55;0.55;;;13.90;99.90;;;;;;5073838;28;20050;-64
2023/09/16 01:23:48;;;;;;;0.88;0.85;;;13.80;99.90;;;;;;5092786;28;20043;-64
2023/09/16 01:26:14;;;;;;;0.63;0.57;;;14.10;99.90;;;;;;5092752;28;20051;-63
2023/09/16 01:28:40;;;;;;;1.27;0.95;;;13.90;99.90;;;;;;5092623;28;20048;-64
2023/09/16 01:31:06;;;;;;;;;;;14.20;99.90;;;;;;5092582;28;20066;-63
2023/09/16 01:33:43;;;;;;;0.90;0.90;;;13.50;99.90;;;;;;5092486;28;20020;-63
2023/09/16 01:36:19;;;;;;;0.98;0.95;;;14.00;99.90;;;;;;5092758;28;20087;-64
2023/09/16 01:38:48;;;;;;;1.02;1.00;;;14.20;99.90;;;;;;5092636;28;20044;-64
2023/09/16 01:41:17;;;;;;;0.73;0.73;;;13.60;99.90;;;;;;5092361;28;20044;-64
2023/09/16 01:43:42;;;;;;;3.63;1.48;;;14.20;99.90;;;;;;5092193;28;20143;-63
2023/09/16 01:46:09;;;;;;;4.20;1.45;;;13.80;99.90;;;;;;5092334;28;20495;-63
2023/09/16 01:48:35;;;;;;;0.90;0.68;;;14.20;99.90;;;;;;5092500;28;20044;-64
2023/09/16 01:51:01;;;;;;;0.90;0.75;;;13.90;99.90;;;;;;5092451;28;20392;-63
2023/09/16 01:53:26;;;;;;;;;;;13.70;99.90;;;;;;5092582;28;20055;-63
2023/09/16 01:55:52;;;;;;;0.70;0.70;;;14.30;99.90;;;;;;5092099;28;20034;-64
2023/09/16 01:58:17;;;;;;;;;;;14.40;99.90;;;;;;5092709;28;20155;-63
2023/09/16 02:00:43;;;;;;;0.55;0.50;;;13.80;99.90;;;;;;5091970;28;19924;-63
2023/09/16 02:03:09;;;;;;;;;;;14.00;99.90;;;;;;5092328;28;20082;-63
2023/09/16 02:05:35;;;;;;;0.50;0.50;;;14.30;99.90;;;;;;5091786;28;19924;-63
2023/09/16 02:08:00;;;;;;;0.65;0.63;;;14.00;99.90;;;;;;5091809;28;20040;-64
2023/09/16 02:10:26;;;;;;;;;;;13.90;99.90;;;;;;5092237;28;20062;-64
2023/09/16 02:12:52;;;;;;;1.55;1.08;;;13.60;99.90;;;;;;5091785;28;20433;-63
2023/09/16 02:15:17;;;;;;;;;;;14.00;99.90;;;;;;5092078;28;20050;-63
2023/09/16 02:17:44;;;;;;;1.33;1.10;;;13.70;99.90;;;;;;5091752;28;19979;-63
2023/09/16 02:20:10;;;;;;;0.60;0.60;;;13.90;99.90;;;;;;5091624;28;20100;-64
2023/09/16 02:22:37;;;;;;;0.73;0.70;;;13.70;99.90;;;;;;5091702;28;20473;-64
2023/09/16 02:25:03;;;;;;;0.88;0.88;;;14.00;99.90;;;;;;5091275;28;20135;-64
2023/09/16 02:27:29;;;;;;;0.55;0.50;;;13.90;99.90;;;;;;5091632;28;20166;-64
2023/09/16 02:29:54;;;;;;;;;;;13.60;99.90;;;;;;5092037;28;20055;-63
2023/09/16 02:32:20;;;;;;;0.70;0.70;;;13.70;99.90;;;;;;5093363;28;19924;-63
2023/09/16 02:34:45;;;;;;;0.80;0.80;;;13.60;99.90;;;;;;5077545;28;20051;-63
2023/09/16 02:37:11;;;;;;;1.15;1.05;;;13.40;99.90;;;;;;5095710;28;20089;-63
2023/09/16 02:39:36;;;;;;;;;;;13.30;99.90;;;;;;5096391;28;20055;-63
2023/09/16 02:42:03;;;;;;;0.82;0.77;;;13.50;99.90;;;;;;5095625;28;19924;-63
2023/09/16 02:44:30;;;;;;;1.17;1.15;;;13.60;99.90;;;;;;5095504;28;20044;-63
2023/09/16 02:46:55;;;;;;;1.73;1.17;;;13.70;99.90;;;;;;5095478;28;20036;-63
2023/09/16 02:49:21;;;;;;;0.90;0.90;;;13.50;99.90;;;;;;5077440;28;20098;-63
2023/09/16 02:51:47;;;;;;;;;;;13.80;99.90;;;;;;5095898;28;20044;-63
2023/09/16 02:54:13;;;;;;;0.80;0.80;;;13.40;99.90;;;;;;5095344;28;19920;-63
2023/09/16 02:56:38;;;;;;;;;;;13.40;99.90;;;;;;5095742;28;20050;-63
2023/09/16 02:59:04;;;;;;;0.70;0.70;;;13.20;99.90;;;;;;5095637;28;20032;-63
2023/09/16 03:01:30;;;;;;;0.80;0.80;;;13.50;99.90;;;;;;5095269;28;20048;-63
2023/09/16 03:03:56;;;;;;;1.05;1.05;;;13.20;99.90;;;;;;5095464;28;20040;-63
2023/09/16 03:06:22;;;;;;;0.63;0.63;;;13.30;99.90;;;;;;5095163;28;20044;-63
2023/09/16 03:08:49;;;;;;;0.98;0.70;;;13.10;99.90;;;;;;5095232;28;20059;-63
2023/09/16 03:11:15;;;;;;;0.52;0.52;;;13.40;99.90;;;;;;5095061;28;20074;-63
2023/09/16 03:13:42;;;;;;;0.85;0.85;;;13.40;99.90;;;;;;5095025;28;20040;-63
2023/09/16 03:16:17;;;;;;;0.45;0.45;;;13.10;99.90;;;;;;5094954;28;20048;-63
2023/09/16 03:18:45;;;;;;;0.80;0.80;;;13.30;99.90;;;;;;5094913;28;20086;-63
2023/09/16 03:21:11;;;;;;;0.30;0.30;;;13.10;99.90;;;;;;5094940;28;20052;-63
2023/09/16 03:23:37;;;;;;;0.55;0.55;;;12.80;99.90;;;;;;5076841;28;20509;-63
2023/09/16 03:26:02;;;;;;;0.43;0.43;;;12.80;99.90;;;;;;5094796;28;20048;-63
2023/09/16 03:28:28;;;;;;;;;;;12.70;99.90;;;;;;5095376;28;20052;-63
2023/09/16 03:30:54;;;;;;;0.75;0.75;;;12.80;99.90;;;;;;5094754;28;19928;-64
2023/09/16 03:33:19;;;;;;;0.47;0.47;;;13.00;99.90;;;;;;5095015;28;20153;-63
2023/09/16 03:35:45;;;;;;;0.35;0.28;;;12.80;99.90;;;;;;5094719;28;20399;-63
2023/09/16 03:38:11;;;;;;;0.75;0.75;;;12.70;99.90;;;;;;5094633;28;20484;-63
2023/09/16 03:40:36;;;;;;;;;;;12.90;99.90;;;;;;5094920;28;20048;-63
2023/09/16 03:43:04;;;;;;;0.50;0.50;;;12.70;99.90;;;;;;5093486;28;19923;-63
2023/09/16 03:45:29;;;;;;;0.68;0.65;;;12.50;99.90;;;;;;5094396;28;20499;-63
2023/09/16 03:47:56;;;;;;;0.52;0.52;;;12.30;99.90;;;;;;5094400;28;20043;-63
2023/09/16 03:50:22;;;;;;;0.75;0.75;;;12.10;99.90;;;;;;5094439;28;20397;-63
2023/09/16 03:52:50;;;;;;;0.65;0.65;;;12.10;99.90;;;;;;5094307;28;20061;-63
2023/09/16 03:55:16;;;;;;;0.38;0.38;;;12.50;99.90;;;;;;5094242;28;20442;-63
2023/09/16 03:57:42;;;;;;;0.75;0.70;;;12.10;99.90;;;;;;5094270;28;20254;-63
2023/09/16 04:00:10;;;;;;;0.30;0.30;;;11.90;99.90;;;;;;5094082;28;20477;-63
2023/09/16 04:02:36;;;;;;;0.30;0.30;;;12.70;99.90;;;;;;5094106;28;20101;-63
2023/09/16 04:05:02;;;;;;;;;;;12.60;99.90;;;;;;5094481;28;20516;-63
2023/09/16 04:07:28;;;;;;;0.55;0.55;;;12.00;99.90;;;;;;5094053;28;19967;-63
2023/09/16 04:09:53;;;;;;;0.40;0.40;;;12.30;99.90;;;;;;5093984;28;20491;-63
2023/09/16 04:12:19;;;;;;;0.43;0.43;;;12.00;99.90;;;;;;5093901;28;20066;-63
2023/09/16 04:14:45;;;;;;;4.03;0.65;;;12.40;99.90;;;;;;5093917;28;20143;-63
2023/09/16 04:17:12;;;;;;;0.30;0.30;;;12.50;99.90;;;;;;5093869;28;20081;-63
2023/09/16 04:19:38;;;;;;;0.30;0.30;;;12.50;99.90;;;;;;5075891;28;20066;-63
2023/09/16 04:22:04;;;;;;;1.08;0.95;;;12.40;99.90;;;;;;5093760;28;20040;-63
2023/09/16 04:24:29;;;;;;;0.77;0.43;;;12.10;99.90;;;;;;5093689;28;20050;-64
2023/09/16 04:26:55;;;;;;;0.40;0.40;;;12.30;99.90;;;;;;5075586;28;20395;-63
2023/09/16 04:29:21;;;;;;;0.63;0.63;;;12.00;99.90;;;;;;5093606;28;20067;-64
2023/09/16 04:31:46;;;;;;;0.75;0.75;;;12.10;99.90;;;;;;5093189;28;20095;-63
2023/09/16 04:34:12;;;;;;;0.95;0.75;;;11.80;99.90;;;;;;5093534;28;20044;-63
2023/09/16 04:36:40;;;;;;;;;;;12.20;99.90;;;;;;5093978;28;20059;-63
2023/09/16 04:39:05;;;;;;;;;;;12.10;99.90;;;;;;5093890;28;19924;-63
2023/09/16 04:41:31;;;;;;;0.47;0.40;;;12.00;99.90;;;;;;5093456;28;20425;-63
2023/09/16 04:43:57;;;;;;;0.88;0.88;;;12.40;99.90;;;;;;5093167;28;20044;-63
2023/09/16 04:46:23;;;;;;;0.52;0.52;;;12.50;99.90;;;;;;5093182;28;20088;-63
2023/09/16 04:48:49;;;;;;;0.40;0.40;;;12.80;99.90;;;;;;5093219;28;20043;-64
2023/09/16 04:51:15;;;;;;;5.07;2.42;;;12.40;99.90;;;;;;5093145;28;20055;-63
2023/09/16 04:53:41;;;;;;;0.40;0.40;;;12.30;99.90;;;;;;5093145;28;20105;-63
2023/09/16 04:56:09;;;;;;;0.30;0.30;;;12.30;99.90;;;;;;5092887;28;20469;-63
2023/09/16 04:58:34;;;;;;;0.70;0.70;;;12.20;99.90;;;;;;5093037;28;20048;-64
2023/09/16 05:01:01;;;;;;;0.47;0.47;;;12.30;99.90;;;;;;5093038;28;20048;-63
2023/09/16 05:03:27;;;;;;;0.55;0.55;;;12.60;99.90;;;;;;5092887;28;20085;-63
2023/09/16 05:05:53;;;;;;;0.45;0.40;;;12.30;99.90;;;;;;5075034;28;20048;-63
2023/09/16 05:08:22;;;;;;;0.20;0.20;;;12.20;99.90;;;;;;5092836;28;20040;-63
2023/09/16 05:10:55;;;;;;;0.50;0.50;;;12.10;99.90;;;;;;5092831;28;20184;-63
2023/09/16 05:13:21;;;;;;;0.50;0.50;;;12.10;99.90;;;;;;5092780;28;20056;-64
2023/09/16 05:15:48;;;;;;;0.28;0.28;;;12.20;99.90;;;;;;5092814;28;20040;-64
2023/09/16 05:18:14;;;;;;;0.60;0.60;;;11.80;99.90;;;;;;5092751;28;20079;-63
2023/09/16 05:20:40;;;;;;;0.52;0.50;;;12.30;99.90;;;;;;5092927;28;20052;-65
2023/09/16 05:23:06;;;;;;;0.40;0.40;;;12.00;99.90;;;;;;5093056;28;20127;-64
2023/09/16 05:25:31;;;;;;;0.30;0.30;;;12.10;99.90;;;;;;5093015;28;20044;-63
2023/09/16 05:27:57;;;;;;;0.77;0.77;;;12.10;99.90;;;;;;5093227;28;20051;-63
2023/09/16 05:30:23;;;;;;;0.60;0.60;;;12.00;99.90;;;;;;5092532;28;20043;-64
2023/09/16 05:32:48;;;;;;;0.60;0.60;;;12.60;99.90;;;;;;5092355;28;20059;-64
2023/09/16 05:35:14;;;;;;;0.55;0.55;;;12.00;99.90;;;;;;5074335;28;20118;-64
2023/09/16 05:37:40;;;;;;;0.30;0.30;;;12.20;99.90;;;;;;5092342;28;20048;-64
2023/09/16 05:40:06;;;;;;;0.63;0.60;;;12.40;99.90;;;;;;5092371;28;20048;-63
2023/09/16 05:42:32;;;;;;;0.75;0.75;;;12.30;99.90;;;;;;5092303;28;20087;-64
2023/09/16 05:45:00;;;;;;;2.05;0.65;;;11.70;99.90;;;;;;5092158;28;20125;-64
2023/09/16 05:47:31;;;;;;;0.40;0.40;;;12.50;99.90;;;;;;5092188;28;20059;-64
2023/09/16 05:49:58;;;;;;;1.08;0.50;;;11.90;99.90;;;;;;5092283;28;20048;-64
2023/09/16 05:52:23;;;;;;;0.73;0.73;;;12.10;99.90;;;;;;5091812;28;20570;-64
2023/09/16 05:54:49;;;;;;;1.80;1.67;;;12.40;99.90;;;;;;5092044;28;20086;-63
2023/09/16 05:57:15;;;;;;;0.50;0.50;;;12.50;99.90;;;;;;5092336;28;20048;-64
2023/09/16 05:59:40;;;;;;;0.60;0.60;;;12.40;99.90;;;;;;5092039;28;20472;-63
2023/09/16 06:02:06;;;;;;;0.43;0.43;;;12.10;99.90;;;;;;5092190;28;20048;-64
2023/09/16 06:04:32;;;;;;;0.55;0.55;;;12.50;99.90;;;;;;5092140;28;20048;-63
2023/09/16 06:06:57;;;;;;;0.45;0.45;;;12.60;99.90;;;;;;5073296;28;20092;-63
2023/09/16 06:09:23;;;;;;;0.30;0.30;;;12.80;99.90;;;;;;5073809;28;20050;-63
2023/09/16 06:11:48;;;;;;;0.45;0.45;;;12.90;99.90;;;;;;5092100;28;20075;-63
2023/09/16 06:14:14;;;;;;;0.63;0.63;;;12.30;99.90;;;;;;5091729;28;20040;-63
2023/09/16 06:16:40;;;;;;;9.57;0.55;;;12.70;99.90;;;;;;5091735;28;20052;-63
2023/09/16 06:19:06;;;;;;;0.28;0.28;;;12.90;99.90;;;;;;5091425;28;20040;-64
2023/09/16 06:21:31;;;;;;;1.58;0.40;;;12.50;99.90;;;;;;5091680;28;20098;-63
2023/09/16 06:23:57;;;;;;;0.30;0.30;;;12.70;99.90;;;;;;5091581;28;20086;-63
2023/09/16 06:26:24;;;;;;;0.68;0.68;;;13.10;99.90;;;;;;5091614;28;20052;-63
2023/09/16 06:28:49;;;;;;;0.68;0.68;;;12.60;99.90;;;;;;5091587;28;20134;-63
2023/09/16 06:31:15;;;;;;;1.02;0.93;;;12.60;99.90;;;;;;5091403;28;20138;-63
2023/09/16 06:33:41;;;;;;;0.60;0.60;;;13.00;99.90;;;;;;5091602;28;20056;-63
2023/09/16 06:36:07;;;;;;;0.55;0.55;;;13.10;99.90;;;;;;5091540;28;20486;-63
2023/09/16 06:38:33;;;;;;;0.30;0.30;;;13.20;99.90;;;;;;5091184;28;20056;-63
2023/09/16 06:40:58;;;;;;;0.40;0.35;;;13.00;99.90;;;;;;5091859;28;20048;-63
2023/09/16 06:43:24;;;;;;;;;;;13.30;99.90;;;;;;5091949;28;20044;-63
2023/09/16 06:45:49;;;;;;;0.35;0.35;;;13.40;99.90;;;;;;5091479;28;19976;-63
2023/09/16 06:48:15;;;;;;;0.60;0.60;;;13.80;99.90;;;;;;5091407;28;20051;-63
2023/09/16 06:50:42;;;;;;;0.32;0.32;;;13.80;99.90;;;;;;5091413;28;20088;-63
2023/09/16 06:53:08;;;;;;;0.40;0.40;;;13.70;99.90;;;;;;5091377;28;20051;-63
2023/09/16 06:55:34;;;;;;;0.63;0.57;;;13.50;99.90;;;;;;5091374;28;20082;-63
2023/09/16 06:58:04;;;;;;;0.22;0.22;;;14.10;99.90;;;;;;5091337;28;20075;-63
2023/09/16 07:00:30;;;;;;;1.27;0.68;;;14.20;99.90;;;;;;5091277;28;20051;-63
2023/09/16 07:02:57;;;;;;;;;;;14.00;99.90;;;;;;5091727;28;20284;-63
2023/09/16 07:05:23;;;;;;;0.43;0.43;;;14.50;99.90;;;;;;5091257;28;19931;-63
2023/09/16 07:07:48;;;;;;;0.40;0.40;;;14.00;99.90;;;;;;5091250;28;20490;-63
2023/09/16 07:10:15;;;;;;;2.88;0.60;;;14.40;99.90;;;;;;5091540;28;20052;-63
2023/09/16 07:12:40;;;;;;;;;;;14.40;99.90;;;;;;5091709;28;20105;-63
2023/09/16 07:15:06;;;;;;;0.30;0.30;;;14.60;99.90;;;;;;5091272;28;20459;-63
2023/09/16 07:17:34;;;;;;;;;;;14.70;99.90;;;;;;5092084;28;20499;-63
2023/09/16 07:20:00;;;;;;;0.30;0.30;;;15.20;99.90;;;;;;5095186;28;19974;-64
2023/09/16 07:22:26;;;;;;;0.20;0.20;;;15.00;99.90;;;;;;5095214;28;20079;-64
2023/09/16 07:24:51;;;;;;;;;;;15.10;99.90;;;;;;5095274;28;20047;-63
2023/09/16 07:27:17;;;;;;;0.50;0.50;;;15.00;99.90;;;;;;5094826;28;19924;-64
2023/09/16 07:29:43;;;;;;;;;;;15.40;99.90;;;;;;5095125;28;20094;-64
2023/09/16 07:32:08;;;;;;;0.90;0.68;;;15.50;99.90;;;;;;5094700;28;19926;-64
2023/09/16 07:34:34;;;;;;;;;;;15.00;99.90;;;;;;5095109;28;20407;-63
2023/09/16 07:37:03;;;;;;;0.30;0.30;;;15.90;99.90;;;;;;5094639;28;19967;-64
2023/09/16 07:39:29;;;;;;;0.20;0.20;;;15.60;99.90;;;;;;5094338;28;20625;-64
2023/09/16 07:41:55;;;;;;;0.73;0.73;;;16.00;99.90;;;;;;5094511;28;20050;-64
2023/09/16 07:44:21;;;;;;;0.68;0.68;;;16.10;99.90;;;;;;5094352;28;20040;-63
2023/09/16 07:46:48;;;;;;;;;;;15.90;99.90;;;;;;5094849;28;20048;-63
2023/09/16 07:49:14;;;;;;;5.78;0.63;;;16.00;99.90;;;;;;5094355;28;19924;-64
2023/09/16 07:51:40;;;;;;;0.40;0.40;;;16.20;99.90;;;;;;5094286;28;20055;-64
2023/09/16 07:54:07;;;;;;;1.02;0.90;;;16.50;99.90;;;;;;5094234;28;20044;-63
2023/09/16 07:56:33;;;;;;;2.55;1.15;;;16.20;99.90;;;;;;5094252;28;20055;-63
2023/09/16 07:58:59;;;;;;;;;;;16.40;99.90;;;;;;5094613;28;20144;-63
2023/09/16 08:01:24;;;;;;;0.95;0.95;;;16.30;99.90;;;;;;5076063;28;19989;-63
2023/09/16 08:03:50;;;;;;;;;;;16.30;99.90;;;;;;5094438;28;20044;-63
2023/09/16 08:06:16;;;;;;;1.45;0.85;;;16.70;99.90;;;;;;5094038;28;19924;-63
2023/09/16 08:08:41;;;;;;;;;;;17.00;99.90;;;;;;5094479;28;20373;-63
2023/09/16 08:11:07;;;;;;;0.95;0.60;;;16.70;99.90;;;;;;5094007;28;20024;-63
2023/09/16 08:13:33;;;;;;;;;;;16.80;99.90;;;;;;5094442;28;20063;-63
2023/09/16 08:15:58;;;;;;;0.57;0.57;;;16.90;99.90;;;;;;5093754;28;19919;-63
2023/09/16 08:18:24;;;;;;;;;;;16.90;99.90;;;;;;5094260;28;20040;-63
2023/09/16 08:20:50;;;;;;;0.40;0.40;;;16.90;99.90;;;;;;5093840;28;20424;-63
2023/09/16 08:23:15;;;;;;;;;;;17.30;99.90;;;;;;5094233;28;20043;-63
2023/09/16 08:25:41;;;;;;;0.30;0.30;;;17.30;99.90;;;;;;5093659;28;19920;-63
2023/09/16 08:28:06;;;;;;;;;;;17.60;99.90;;;;;;5094109;28;20105;-63
2023/09/16 08:30:32;;;;;;;1.35;1.08;;;17.80;99.90;;;;;;5093105;28;20411;-63
2023/09/16 08:32:58;;;;;;;;;;;18.10;99.90;;;;;;5094160;28;20125;-63
2023/09/16 08:35:25;;;;;;;1.75;1.05;;;18.30;99.90;;;;;;5093539;28;19981;-64
2023/09/16 08:37:51;;;;;;;0.70;0.70;;;18.20;99.90;;;;;;5093507;28;20048;-64
2023/09/16 08:40:17;;;;;;;0.45;0.38;;;18.20;99.90;;;;;;5093438;28;20048;-63
2023/09/16 08:43:03;;;;;;;0.45;0.45;;;18.40;99.90;;;;;;5093414;28;20099;-63
2023/09/16 08:45:33;;;;;;;0.90;0.90;;;18.80;99.90;;;;;;5093426;28;20127;-64
2023/09/16 08:48:03;;;;;;;0.77;0.77;;;18.60;99.90;;;;;;5093351;28;20074;-63
2023/09/16 08:50:31;;;;;;;0.50;0.50;;;18.60;99.90;;;;;;5093342;28;20056;-63
2023/09/16 08:53:03;;;;;;;1.05;0.88;;;19.00;99.90;;;;;;5075284;28;20044;-63
2023/09/16 08:55:30;;;;;;;0.85;0.85;;;18.50;99.90;;;;;;5093527;28;20449;-64
2023/09/16 08:58:09;;;;;;;1.00;0.95;;;18.60;99.90;;;;;;5093358;28;20043;-63
2023/09/16 09:00:36;;;;;;;4.05;1.10;;;18.80;99.90;;;;;;5093087;28;20101;-63
2023/09/16 09:03:02;;;;;;;0.63;0.63;;;18.90;99.90;;;;;;5093127;28;20052;-63
2023/09/16 09:05:29;;;;;;;0.40;0.40;;;18.90;99.90;;;;;;5092977;28;20047;-63
2023/09/16 09:07:55;;;;;;;2.53;0.80;;;19.10;99.90;;;;;;5092953;28;20063;-63
2023/09/16 09:10:21;;;;;;;0.68;0.68;;;19.20;99.90;;;;;;5092546;28;20500;-63
2023/09/16 09:12:47;;;;;;;0.28;0.28;;;19.30;99.90;;;;;;5092881;28;20040;-63
2023/09/16 09:15:14;;;;;;;2.13;1.00;;;19.40;99.90;;;;;;5093080;28;20462;-63
2023/09/16 09:17:50;;;;;;;0.20;0.20;;;19.60;99.90;;;;;;5092951;28;20048;-64
2023/09/16 09:20:21;;;;;;;0.50;0.50;;;19.90;99.90;;;;;;5092859;28;20391;-63
2023/09/16 09:22:50;;;;;;;1.58;1.20;;;20.20;99.90;;;;;;5092580;28;20090;-63
2023/09/16 09:25:23;;;;;;;1.38;0.55;;;19.80;99.90;;;;;;5092467;28;20040;-63
2023/09/16 09:27:50;;;;;;;0.52;0.52;;;20.40;99.90;;;;;;5092565;28;20097;-63
2023/09/16 09:30:19;;;;;;;0.55;0.55;;;19.90;99.90;;;;;;5074570;28;20040;-63
2023/09/16 09:32:45;;;;;;;0.20;0.20;;;20.00;99.90;;;;;;5092042;28;20071;-63
2023/09/16 09:35:11;;;;;;;0.55;0.55;;;20.60;99.90;;;;;;5092129;28;20492;-63
2023/09/16 09:37:38;;;;;;;1.30;1.20;;;20.60;99.90;;;;;;5092358;28;20090;-63
2023/09/16 09:40:12;;;;;;;0.47;0.47;;;20.30;99.90;;;;;;5092589;28;20043;-63
2023/09/16 09:42:43;;;;;;;0.40;0.40;;;20.60;99.90;;;;;;5091517;28;20385;-63
2023/09/16 09:45:10;;;;;;;0.73;0.68;;;20.70;99.90;;;;;;5092296;28;20047;-63
2023/09/16 09:47:40;;;;;;;0.30;0.30;;;20.70;99.90;;;;;;5092158;28;20430;-63
2023/09/16 09:50:07;;;;;;;0.47;0.38;;;21.10;99.90;;;;;;5092188;28;20052;-63
2023/09/16 09:52:34;;;;;;;0.70;0.43;;;20.90;99.90;;;;;;5092057;28;20048;-62
2023/09/16 09:55:00;;;;;;;0.43;0.43;;;20.90;99.90;;;;;;5092103;28;20657;-63
2023/09/16 09:57:30;;;;;;;0.98;0.65;;;21.00;99.90;;;;;;5092151;28;20048;-63
2023/09/16 09:59:57;;;;;;;0.40;0.40;;;21.20;99.90;;;;;;5091993;28;20424;-63
2023/09/16 10:02:25;;;;;;;3.42;0.63;;;21.20;99.90;;;;;;5091982;28;20051;-63
2023/09/16 10:05:01;;;;;;;0.47;0.47;;;20.90;99.90;;;;;;5091894;28;20044;-63
2023/09/16 10:07:28;;;;;;;0.30;0.30;;;21.30;99.90;;;;;;5091902;28;20377;-63
2023/09/16 10:09:54;;;;;;;0.20;0.20;;;21.50;99.90;;;;;;5091806;28;20488;-63
2023/09/16 10:12:21;;;;;;;0.82;0.50;;;21.50;99.90;;;;;;5091824;28;20050;-63
2023/09/16 10:14:48;;;;;;;1.15;0.50;;;21.70;99.90;;;;;;5091740;28;20488;-63
2023/09/16 10:17:15;;;;;;;0.40;0.40;;;21.80;99.90;;;;;;5091736;28;20055;-63
2023/09/16 10:19:41;;;;;;;0.20;0.20;;;21.70;99.90;;;;;;5091815;28;20051;-63
2023/09/16 10:22:07;;;;;;;0.63;0.63;;;21.70;99.90;;;;;;5091729;28;20567;-63
2023/09/16 10:24:33;;;;;;;0.30;0.30;;;21.80;99.90;;;;;;5091578;28;20052;-63
2023/09/16 10:27:05;;;;;;;0.75;0.57;;;22.00;99.90;;;;;;5091625;28;20040;-63
2023/09/16 10:29:31;;;;;;;0.20;0.20;;;21.90;99.90;;;;;;5091724;28;20077;-63
2023/09/16 10:31:58;;;;;;;0.10;0.10;;;22.10;99.90;;;;;;5091218;28;20167;-63
2023/09/16 10:34:24;;;;;;;0.20;0.20;;;21.80;99.90;;;;;;5073472;28;20044;-63
2023/09/16 10:36:50;;;;;;;0.10;0.10;;;22.10;99.90;;;;;;5091548;28;20054;-63
2023/09/16 10:39:17;;;;;;;0.30;0.30;;;22.20;99.90;;;;;;5091530;28;20048;-63
2023/09/16 10:41:44;;;;;;;0.55;0.55;;;22.00;99.90;;;;;;5091505;28;20539;-63
2023/09/16 10:44:12;;;;;;;0.20;0.20;;;22.30;99.90;;;;;;5091360;28;20044;-63
2023/09/16 10:46:38;;;;;;;0.50;0.50;;;22.20;99.90;;;;;;5091516;28;20463;-63
2023/09/16 10:49:04;;;;;;;0.50;0.50;;;22.50;99.90;;;;;;5091384;28;20412;-63
2023/09/16 10:51:42;;;;;;;0.45;0.45;;;21.90;99.90;;;;;;5091408;28;20087;-63
2023/09/16 10:54:23;;;;;;;0.15;0.15;;;22.60;99.90;;;;;;5094897;28;20043;-63
2023/09/16 10:56:50;;;;;;;0.45;0.28;;;22.70;99.90;;;;;;5095591;28;20066;-63
2023/09/16 10:59:18;;;;;;;0.25;0.25;;;22.50;99.90;;;;;;5095459;28;20048;-63
2023/09/16 11:01:55;;;;;;;0.45;0.45;;;22.30;99.90;;;;;;5095397;28;20574;-63
2023/09/16 11:04:22;;;;;;;0.47;0.47;;;22.80;99.90;;;;;;5095414;28;20119;-63
2023/09/16 11:06:50;;;;;;;0.20;0.20;;;22.80;99.90;;;;;;5095325;28;20051;-63
2023/09/16 11:09:20;;;;;;;0.00;0.00;;;22.70;99.90;;;;;;5095617;28;20043;-63
2023/09/16 11:11:48;;;;;;;0.20;0.20;;;22.60;99.90;;;;;;5095373;28;20036;-63
2023/09/16 11:14:14;;;;;;;0.73;0.73;;;23.00;99.90;;;;;;5095127;28;20496;-63
2023/09/16 11:16:52;;;;;;;0.30;0.30;;;22.90;99.90;;;;;;5095098;28;20466;-63
2023/09/16 11:19:24;;;;;;;0.17;0.17;;;22.80;99.90;;;;;;5095058;28;20461;-63
2023/09/16 11:21:52;;;;;;;0.22;0.22;;;23.00;99.90;;;;;;5094991;28;20519;-63
2023/09/16 11:24:17;;;;;;;0.32;0.25;;;23.20;99.90;;;;;;5094869;28;20036;-63
2023/09/16 11:26:47;;;;;;;0.20;0.20;;;23.20;99.90;;;;;;5094916;28;20101;-63
2023/09/16 11:29:24;;;;;;;0.30;0.30;;;22.90;99.90;;;;;;5095120;28;20491;-63
2023/09/16 11:31:50;;;;;;;0.10;0.10;;;23.30;99.90;;;;;;5094445;28;20067;-63
2023/09/16 11:34:21;;;;;;;0.30;0.30;;;22.90;99.90;;;;;;5094744;28;20760;-63
2023/09/16 11:36:55;;;;;;;0.28;0.25;;;23.20;99.90;;;;;;5094717;28;20059;-63
2023/09/16 11:39:43;;;;;;;0.65;0.50;;;22.90;99.90;;;;;;5094715;28;20491;-63
2023/09/16 11:42:10;;;;;;;0.25;0.25;;;23.20;99.90;;;;;;5094165;28;20052;-63
2023/09/16 11:44:36;;;;;;;0.30;0.30;;;23.00;99.90;;;;;;5094426;28;20044;-63
2023/09/16 11:47:03;;;;;;;0.30;0.30;;;23.20;99.90;;;;;;5094466;28;20071;-63
2023/09/16 11:49:33;;;;;;;0.30;0.30;;;23.20;99.90;;;;;;5094441;28;20044;-63
2023/09/16 11:51:59;;;;;;;0.55;0.55;;;23.10;99.90;;;;;;5094429;28;20260;-63
2023/09/16 11:54:25;;;;;;;0.13;0.13;;;23.20;99.90;;;;;;5094336;28;20400;-63
2023/09/16 11:56:52;;;;;;;1.23;0.40;;;23.10;99.90;;;;;;5093995;28;20047;-63
2023/09/16 11:59:18;;;;;;;0.35;0.35;;;23.00;99.90;;;;;;5094242;28;20055;-63
2023/09/16 12:01:44;;;;;;;0.35;0.30;;;23.40;99.90;;;;;;5094176;28;20036;-62
2023/09/16 12:04:11;;;;;;;0.17;0.17;;;22.90;99.90;;;;;;5093073;28;20083;-63
2023/09/16 12:06:38;;;;;;;0.57;0.57;;;23.20;99.90;;;;;;5075957;28;20040;-63
2023/09/16 12:09:06;;;;;;;1.25;1.15;;;23.30;99.90;;;;;;5094129;28;20048;-63
2023/09/16 12:11:33;;;;;;;1.00;0.95;;;23.20;99.90;;;;;;5094028;28;20044;-63
2023/09/16 12:14:00;;;;;;;1.13;0.85;;;23.50;99.90;;;;;;5094038;28;20044;-63
2023/09/16 12:16:27;;;;;;;0.20;0.20;;;23.20;99.90;;;;;;5094017;28;20048;-63
2023/09/16 12:18:53;;;;;;;1.02;0.30;;;23.40;99.90;;;;;;5093946;28;20085;-63
2023/09/16 12:21:19;;;;;;;0.25;0.25;;;23.40;99.90;;;;;;5094118;28;20047;-63
2023/09/16 12:23:51;;;;;;;0.10;0.10;;;23.30;99.90;;;;;;5094052;28;20094;-63
2023/09/16 12:26:17;;;;;;;0.38;0.30;;;23.50;99.90;;;;;;5094076;28;20047;-63
2023/09/16 12:28:42;;;;;;;0.93;0.60;;;23.20;99.90;;;;;;5093702;28;20075;-63
2023/09/16 12:31:11;;;;;;;0.45;0.43;;;23.00;99.90;;;;;;5093402;28;20519;-63
2023/09/16 12:33:37;;;;;;;0.57;0.52;;;23.30;99.90;;;;;;5093599;28;20047;-63
2023/09/16 12:36:03;;;;;;;0.22;0.22;;;23.30;99.90;;;;;;5075594;28;20446;-63
2023/09/16 12:38:34;;;;;;;0.17;0.13;;;23.70;99.90;;;;;;5075370;28;20048;-61
2023/09/16 12:41:01;;;;;;;2.30;0.43;;;23.60;99.90;;;;;;5093524;28;20094;-62
2023/09/16 12:43:28;;;;;;;0.43;0.43;;;23.40;99.90;;;;;;5075263;28;20130;-63
2023/09/16 12:45:54;;;;;;;1.38;0.68;;;23.20;99.90;;;;;;5093252;28;20043;-63
2023/09/16 12:48:20;;;;;;;0.20;0.20;;;23.50;99.90;;;;;;5093352;28;20056;-63
2023/09/16 12:50:46;;;;;;;0.55;0.55;;;23.40;99.90;;;;;;5092938;28;20457;-64
2023/09/16 12:53:12;;;;;;;0.40;0.40;;;23.60;99.90;;;;;;5093226;28;20135;-63